Time;durP1;ratioP1;P1;durP2;ratioP2;P2;SDS_P1;SDS_P2;PMS_P1;PMS_P2;Temp;Humidity;BMP_temperature;BMP_pressure;BME280_temperature;BME280_humidity;BME280_pressure;Samples;Min_cycle;Max_cycle;Signal;HPM_P1;HPM_P2
2022/05/14 00:00:36;;;;;;;2.55;2.10;;;18.30;84.00;;;;;;4889470;28;97758;-61
2022/05/14 00:03:07;;;;;;;2.40;2.00;;;18.30;84.00;;;;;;4892590;28;96646;-61
2022/05/14 00:05:38;;;;;;;2.55;2.05;;;18.30;84.00;;;;;;4893478;28;96692;-62
2022/05/14 00:08:12;;;;;;;2.63;1.92;;;18.30;83.90;;;;;;4887129;28;95672;-63
2022/05/14 00:13:38;;;;;;;2.47;1.80;;;18.40;84.00;;;;;;4877973;28;95629;-62
2022/05/14 00:16:10;;;;;;;2.00;1.85;;;18.40;84.50;;;;;;4881701;28;96030;-62
2022/05/14 00:18:43;;;;;;;2.10;1.90;;;18.30;83.90;;;;;;4889784;28;95681;-61
2022/05/14 00:21:15;;;;;;;2.40;1.70;;;18.40;84.00;;;;;;4892259;28;95879;-62
2022/05/14 00:23:46;;;;;;;2.97;1.70;;;18.40;84.00;;;;;;4890881;28;95868;-62
2022/05/14 00:26:18;;;;;;;2.25;1.65;;;18.40;83.90;;;;;;4891273;28;95303;-62
2022/05/14 00:28:49;;;;;;;2.72;1.85;;;18.40;83.90;;;;;;4879557;28;96102;-62
2022/05/14 00:31:21;;;;;;;2.55;1.63;;;18.40;80.80;;;;;;4887305;28;97673;-62
2022/05/14 00:33:51;;;;;;;1.95;1.75;;;18.40;83.90;;;;;;4892286;28;95918;-63
2022/05/14 00:36:22;;;;;;;2.78;2.00;;;18.40;83.90;;;;;;4892290;28;95650;-63
2022/05/14 00:38:54;;;;;;;1.98;1.80;;;18.40;83.90;;;;;;4923140;28;95999;-63
2022/05/14 00:41:27;;;;;;;3.08;2.05;;;18.40;83.80;;;;;;4892134;28;95919;-62
2022/05/14 00:43:59;;;;;;;4.28;1.67;;;18.40;83.90;;;;;;4880674;28;95874;-61
2022/05/14 00:46:48;;;;;;;2.45;2.08;;;18.40;83.90;;;;;;4888308;28;95849;-62
2022/05/14 00:49:23;;;;;;;2.60;1.85;;;18.40;83.80;;;;;;4893238;28;95549;-62
2022/05/14 00:51:56;;;;;;;1.67;1.48;;;18.40;83.80;;;;;;4906475;28;98386;-62
2022/05/14 00:54:41;;;;;;;1.90;1.73;;;18.40;83.80;;;;;;4890389;28;95709;-63
2022/05/14 00:57:15;;;;;;;1.90;1.52;;;18.40;83.80;;;;;;4892553;28;95767;-63
2022/05/14 00:59:45;;;;;;;2.92;1.77;;;18.40;83.80;;;;;;4878599;28;96044;-63
2022/05/14 01:02:19;;;;;;;2.92;2.58;;;18.30;83.60;;;;;;4893583;28;98937;-62
2022/05/14 01:04:51;;;;;;;3.13;2.17;;;18.40;83.70;;;;;;4890465;28;97426;-62
2022/05/14 01:07:24;;;;;;;2.13;1.70;;;18.30;83.70;;;;;;4891660;28;95826;-62
2022/05/14 01:10:03;;;;;;;2.30;2.10;;;18.40;83.70;;;;;;4878904;28;95637;-62
2022/05/14 01:12:35;;;;;;;3.25;2.42;;;18.40;83.70;;;;;;4893184;28;96165;-63
2022/05/14 01:15:15;;;;;;;;;;;18.40;83.70;;;;;;4895339;28;95822;-63
2022/05/14 01:17:46;;;;;;;4.53;1.80;;;18.40;83.70;;;;;;4891159;28;95991;-63
2022/05/14 01:20:20;;;;;;;2.60;2.05;;;18.40;83.70;;;;;;4894884;28;95587;-63
2022/05/14 01:23:06;;;;;;;2.45;1.92;;;18.30;83.70;;;;;;4894258;28;95959;-63
2022/05/14 01:28:34;;;;;;;3.47;2.08;;;18.40;83.70;;;;;;4894268;28;95518;-63
2022/05/14 01:31:05;;;;;;;2.38;2.17;;;18.30;83.60;;;;;;4889696;28;95855;-62
2022/05/14 01:33:36;;;;;;;2.25;2.05;;;18.40;83.60;;;;;;4892735;28;98436;-63
2022/05/14 01:36:09;;;;;;;2.72;2.17;;;18.30;83.60;;;;;;4892584;28;97667;-62
2022/05/14 01:38:41;;;;;;;2.08;1.88;;;18.30;83.60;;;;;;4892804;28;95336;-62
2022/05/14 01:41:12;;;;;;;2.70;2.00;;;18.40;83.60;;;;;;4891726;28;95543;-62
2022/05/14 01:43:44;;;;;;;6.38;2.95;;;18.40;83.60;;;;;;4923506;28;98416;-62
2022/05/14 01:46:15;;;;;;;3.63;2.03;;;18.30;83.60;;;;;;4887714;28;97308;-62
2022/05/14 01:48:48;;;;;;;2.40;2.20;;;18.30;83.60;;;;;;4925593;28;95393;-62
2022/05/14 01:51:20;;;;;;;2.45;2.05;;;18.30;83.60;;;;;;4893539;28;95567;-62
2022/05/14 01:53:52;;;;;;;2.33;1.60;;;18.30;83.70;;;;;;4919015;28;98499;-61
2022/05/14 01:56:23;;;;;;;1.85;1.75;;;18.30;83.70;;;;;;4895673;28;96123;-60
2022/05/14 01:58:53;;;;;;;1.80;1.67;;;18.30;83.70;;;;;;4904864;28;95218;-60
2022/05/14 02:01:26;;;;;;;;;;;18.30;83.70;;;;;;4888513;28;95901;-59
2022/05/14 02:04:04;;;;;;;2.85;1.60;;;18.30;83.70;;;;;;4927369;28;97110;-60
2022/05/14 02:06:37;;;;;;;3.17;1.70;;;18.30;83.80;;;;;;4886090;28;97389;-60
2022/05/14 02:09:10;;;;;;;1.98;1.75;;;18.30;83.70;;;;;;4907319;28;95964;-59
2022/05/14 02:11:45;;;;;;;2.00;1.80;;;18.30;83.70;;;;;;4916356;28;95807;-60
2022/05/14 02:14:25;;;;;;;1.57;1.40;;;18.20;83.70;;;;;;4903113;28;98571;-60
2022/05/14 02:16:57;;;;;;;;;;;18.30;83.80;;;;;;4894561;28;96253;-60
2022/05/14 02:19:31;;;;;;;1.65;1.55;;;18.30;83.70;;;;;;4908005;28;95759;-60
2022/05/14 02:22:05;;;;;;;1.90;1.40;;;18.30;83.70;;;;;;4889734;28;95815;-60
2022/05/14 02:24:37;;;;;;;1.67;1.58;;;18.30;83.70;;;;;;4905621;28;98517;-60
2022/05/14 02:27:08;;;;;;;1.20;1.17;;;18.30;83.70;;;;;;4908790;28;97718;-60
2022/05/14 02:29:53;;;;;;;2.20;1.47;;;18.30;83.70;;;;;;4877475;28;95804;-60
2022/05/14 02:32:27;;;;;;;1.92;1.17;;;18.30;83.50;;;;;;4877468;28;98590;-60
2022/05/14 02:34:59;;;;;;;1.85;1.70;;;18.30;83.60;;;;;;4874108;28;96711;-60
2022/05/14 02:37:30;;;;;;;3.80;1.60;;;18.40;83.60;;;;;;4910971;28;95923;-60
2022/05/14 02:40:01;;;;;;;1.58;1.48;;;18.40;83.70;;;;;;4875028;28;95912;-60
2022/05/14 02:42:31;;;;;;;2.28;1.60;;;18.30;83.70;;;;;;4879653;28;97292;-59
2022/05/14 02:45:01;;;;;;;2.30;1.73;;;18.30;83.80;;;;;;4877541;28;96009;-60
2022/05/14 02:47:32;;;;;;;2.30;1.67;;;18.30;83.80;;;;;;4882165;28;95491;-59
2022/05/14 02:50:04;;;;;;;2.75;1.50;;;18.40;83.90;;;;;;4887418;28;95695;-59
2022/05/14 02:52:36;;;;;;;1.90;1.40;;;18.40;83.80;;;;;;4919022;28;95786;-60
2022/05/14 02:55:09;;;;;;;4.40;1.63;;;18.40;83.80;;;;;;4885016;28;95969;-60
2022/05/14 02:57:40;;;;;;;1.75;1.45;;;18.40;83.80;;;;;;4884366;28;95523;-59
2022/05/14 03:00:13;;;;;;;1.65;1.55;;;18.40;83.80;;;;;;4884604;28;95345;-60
2022/05/14 03:02:45;;;;;;;1.50;1.40;;;18.40;83.80;;;;;;4892121;28;95521;-61
2022/05/14 03:05:19;;;;;;;2.15;1.40;;;18.40;84.10;;;;;;4876843;28;96058;-60
2022/05/14 03:07:50;;;;;;;1.40;1.30;;;18.40;84.20;;;;;;4922039;28;97219;-61
2022/05/14 03:10:22;;;;;;;1.50;1.33;;;18.30;84.10;;;;;;4889093;28;95760;-61
2022/05/14 03:12:55;;;;;;;1.17;1.08;;;18.40;81.20;;;;;;4886210;28;95481;-62
2022/05/14 03:15:27;;;;;;;1.50;1.40;;;18.30;84.20;;;;;;4899382;28;98373;-62
2022/05/14 03:17:58;;;;;;;1.98;1.20;;;18.30;84.30;;;;;;4884453;28;97238;-55
2022/05/14 03:20:32;;;;;;;3.47;1.20;;;18.30;84.40;;;;;;4874682;28;96088;-46
2022/05/14 03:23:05;;;;;;;3.15;1.10;;;18.30;84.50;;;;;;4919348;28;96043;-43
2022/05/14 03:25:37;;;;;;;1.40;1.10;;;18.40;84.70;;;;;;4890280;28;96720;-47
2022/05/14 03:28:10;;;;;;;1.85;0.98;;;18.40;84.80;;;;;;4889347;28;95933;-54
2022/05/14 03:30:40;;;;;;;1.45;1.33;;;18.60;84.90;;;;;;4883177;28;97130;-45
2022/05/14 03:33:12;;;;;;;1.30;1.20;;;18.70;84.70;;;;;;4891305;28;95726;-48
2022/05/14 03:35:42;;;;;;;1.53;1.43;;;18.80;84.60;;;;;;4889609;28;96492;-45
2022/05/14 03:38:14;;;;;;;2.20;1.40;;;18.90;84.40;;;;;;4920296;28;97729;-48
2022/05/14 03:40:44;;;;;;;0.95;0.95;;;19.00;84.30;;;;;;4888628;28;95523;-52
2022/05/14 03:43:15;;;;;;;1.30;1.20;;;19.20;84.10;;;;;;4891181;28;96358;-45
2022/05/14 03:45:45;;;;;;;1.58;0.98;;;19.30;83.90;;;;;;4886208;28;98516;-45
2022/05/14 03:48:18;;;;;;;1.38;1.10;;;19.40;83.60;;;;;;4892437;28;98680;-56
2022/05/14 03:50:50;;;;;;;0.88;0.85;;;19.50;83.30;;;;;;4904891;28;96280;-50
2022/05/14 03:53:24;;;;;;;0.70;0.70;;;19.60;83.00;;;;;;4891127;28;96007;-52
2022/05/14 03:55:55;;;;;;;1.00;1.00;;;19.80;82.90;;;;;;4921686;28;96021;-55
2022/05/14 03:58:25;;;;;;;1.17;1.08;;;19.80;82.40;;;;;;4890632;28;96144;-48
2022/05/14 04:00:56;;;;;;;0.90;0.90;;;19.90;82.30;;;;;;4885987;28;95300;-55
2022/05/14 04:03:28;;;;;;;1.23;1.13;;;20.00;82.10;;;;;;4922474;28;96066;-57
2022/05/14 04:06:02;;;;;;;1.15;1.05;;;20.10;81.70;;;;;;4922905;28;96340;-57
2022/05/14 04:08:33;;;;;;;0.75;0.75;;;20.20;81.50;;;;;;4921237;28;96251;-57
2022/05/14 04:11:05;;;;;;;1.33;1.23;;;20.20;81.40;;;;;;4920978;28;96120;-55
2022/05/14 04:13:37;;;;;;;1.15;1.15;;;20.20;81.20;;;;;;4922767;28;98035;-54
2022/05/14 04:16:09;;;;;;;0.90;0.90;;;20.20;81.20;;;;;;4909379;28;98363;-57
2022/05/14 04:18:40;;;;;;;1.02;1.02;;;20.30;81.30;;;;;;4887185;28;95826;-55
2022/05/14 04:21:12;;;;;;;0.88;0.88;;;20.30;81.10;;;;;;4922265;28;95910;-55
2022/05/14 04:23:44;;;;;;;1.10;1.00;;;20.30;81.10;;;;;;4893217;28;96472;-53
2022/05/14 04:26:14;;;;;;;1.05;0.93;;;20.40;81.10;;;;;;4888717;28;98518;-54
2022/05/14 04:28:46;;;;;;;1.17;1.08;;;20.40;81.10;;;;;;4904620;28;97413;-53
2022/05/14 04:31:23;;;;;;;0.80;0.80;;;20.40;78.10;;;;;;4885031;28;96445;-53
2022/05/14 04:33:55;;;;;;;0.90;0.90;;;20.40;81.00;;;;;;4888774;28;96255;-54
2022/05/14 04:36:26;;;;;;;0.90;0.90;;;20.40;81.00;;;;;;4918559;28;98106;-57
2022/05/14 04:38:57;;;;;;;;;;;20.40;81.00;;;;;;4884305;28;95824;-55
2022/05/14 04:41:30;;;;;;;1.30;1.17;;;20.30;78.50;;;;;;4915561;28;96997;-54
2022/05/14 04:44:04;;;;;;;1.27;1.02;;;20.10;78.40;;;;;;4885091;28;95757;-54
2022/05/14 04:46:35;;;;;;;1.30;1.23;;;19.90;78.50;;;;;;4879438;28;95893;-54
2022/05/14 04:49:07;;;;;;;1.02;1.02;;;19.80;78.90;;;;;;4919773;28;97204;-56
2022/05/14 04:51:40;;;;;;;1.77;1.40;;;19.70;79.30;;;;;;4921518;28;96616;-55
2022/05/14 04:54:11;;;;;;;1.25;1.10;;;19.60;79.70;;;;;;4921001;28;95798;-55
2022/05/14 04:56:41;;;;;;;1.40;1.30;;;19.50;80.00;;;;;;4920471;28;96125;-57
2022/05/14 04:59:12;;;;;;;1.20;1.10;;;19.50;80.10;;;;;;4918792;28;95890;-56
2022/05/14 05:03:16;;;;;;;0.90;0.82;;;19.40;80.20;;;;;;4880925;28;96394;-57
2022/05/14 05:04:37;;;;;;;1.05;0.90;;;19.40;80.30;;;;;;4889265;28;95801;-54
2022/05/14 05:07:10;;;;;;;0.73;0.73;;;19.40;80.40;;;;;;4919401;28;98356;-56
2022/05/14 05:09:46;;;;;;;1.00;1.00;;;19.30;80.50;;;;;;4888010;28;98118;-54
2022/05/14 05:12:17;;;;;;;1.05;1.00;;;19.30;80.60;;;;;;4874167;28;96978;-56
2022/05/14 05:14:55;;;;;;;1.00;1.00;;;19.30;80.70;;;;;;4878342;28;97450;-56
2022/05/14 05:17:29;;;;;;;0.77;0.77;;;19.30;80.70;;;;;;4874144;28;96909;-58
2022/05/14 05:20:02;;;;;;;1.20;1.00;;;19.30;80.70;;;;;;4886714;28;96106;-57
2022/05/14 05:22:34;;;;;;;1.25;1.15;;;19.20;80.70;;;;;;4886836;28;95707;-56
2022/05/14 05:25:09;;;;;;;1.10;1.00;;;19.20;80.90;;;;;;4886309;28;95971;-56
2022/05/14 05:27:42;;;;;;;1.33;1.20;;;19.20;81.00;;;;;;4884980;28;96646;-55
2022/05/14 05:30:13;;;;;;;2.33;1.25;;;19.10;81.10;;;;;;4881625;28;96133;-55
2022/05/14 05:32:44;;;;;;;1.20;1.00;;;19.20;81.10;;;;;;4917012;28;95311;-57
2022/05/14 05:35:16;;;;;;;0.85;0.85;;;19.20;81.40;;;;;;4887661;28;96741;-57
2022/05/14 05:37:48;;;;;;;2.50;1.38;;;19.20;81.40;;;;;;4887281;28;96301;-57
2022/05/14 05:40:21;;;;;;;1.10;1.00;;;19.20;81.70;;;;;;4886948;28;95913;-56
2022/05/14 05:42:52;;;;;;;2.20;1.10;;;19.20;80.00;;;;;;4888600;28;95890;-55
2022/05/14 05:45:22;;;;;;;1.42;0.90;;;19.20;81.90;;;;;;4882610;28;96423;-57
2022/05/14 05:47:54;;;;;;;1.08;0.98;;;19.20;81.90;;;;;;4908602;28;102409;-57
2022/05/14 05:50:27;;;;;;;;;;;19.20;82.00;;;;;;4906479;28;95813;-58
2022/05/14 05:52:58;;;;;;;1.92;1.20;;;19.20;82.00;;;;;;4909262;28;95759;-55
2022/05/14 05:58:21;;;;;;;1.40;1.00;;;19.20;82.10;;;;;;4907094;28;95856;-57
2022/05/14 06:00:53;;;;;;;1.10;0.80;;;19.10;82.10;;;;;;4902180;28;95934;-57
2022/05/14 06:03:26;;;;;;;0.93;0.88;;;19.20;82.20;;;;;;4908920;28;95785;-57
2022/05/14 06:06:00;;;;;;;1.90;1.15;;;19.20;82.20;;;;;;4907130;28;95844;-55
2022/05/14 06:08:34;;;;;;;1.30;1.20;;;19.20;82.30;;;;;;4905593;28;95842;-57
2022/05/14 06:11:05;;;;;;;2.15;1.10;;;19.20;82.30;;;;;;4903854;28;95437;-57
2022/05/14 06:13:38;;;;;;;1.42;1.30;;;19.20;82.40;;;;;;4904429;28;96043;-54
2022/05/14 06:16:16;;;;;;;2.55;0.98;;;19.20;82.40;;;;;;4896721;28;96564;-56
2022/05/14 06:18:48;;;;;;;1.83;0.90;;;19.20;82.50;;;;;;4901682;28;96592;-55
2022/05/14 06:21:21;;;;;;;2.10;0.90;;;19.20;82.50;;;;;;4903302;28;95461;-57
2022/05/14 06:23:52;;;;;;;1.38;0.93;;;19.20;82.80;;;;;;4901677;28;95995;-57
2022/05/14 06:26:22;;;;;;;2.30;0.75;;;19.20;82.60;;;;;;4902221;28;96477;-57
2022/05/14 06:28:54;;;;;;;1.13;0.80;;;19.20;82.60;;;;;;4901270;28;96622;-56
2022/05/14 06:31:27;;;;;;;1.17;1.08;;;19.20;82.70;;;;;;4896824;28;95917;-56
2022/05/14 06:33:59;;;;;;;1.30;0.93;;;19.20;82.70;;;;;;4902499;28;96335;-55
2022/05/14 06:36:32;;;;;;;2.35;1.15;;;19.10;82.80;;;;;;4917631;28;95783;-57
2022/05/14 06:39:06;;;;;;;1.00;0.90;;;19.10;82.80;;;;;;4903344;28;96777;-57
2022/05/14 06:41:39;;;;;;;0.93;0.93;;;19.10;82.90;;;;;;4903253;28;95761;-57
2022/05/14 06:44:10;;;;;;;1.58;1.10;;;19.10;82.80;;;;;;4919267;28;95931;-56
2022/05/14 06:46:44;;;;;;;1.20;1.05;;;19.10;82.70;;;;;;4900698;28;95830;-56
2022/05/14 06:49:17;;;;;;;1.15;1.10;;;19.20;79.80;;;;;;4903261;28;97274;-56
2022/05/14 06:51:52;;;;;;;2.10;1.30;;;19.10;82.70;;;;;;4904643;28;95824;-55
2022/05/14 06:54:23;;;;;;;1.25;1.08;;;19.20;82.70;;;;;;4903120;28;95893;-55
2022/05/14 06:56:54;;;;;;;1.20;1.10;;;19.20;82.70;;;;;;4903154;28;96059;-55
2022/05/14 06:59:27;;;;;;;2.65;1.33;;;19.20;82.70;;;;;;4901993;28;96932;-55
2022/05/14 07:02:01;;;;;;;1.80;1.30;;;19.20;82.70;;;;;;4898566;28;95359;-54
2022/05/14 07:07:27;;;;;;;0.80;0.80;;;19.10;82.80;;;;;;4904361;28;95656;-54
2022/05/14 07:10:03;;;;;;;1.38;1.27;;;19.10;82.80;;;;;;4901305;28;96335;-54
2022/05/14 07:12:38;;;;;;;1.10;1.00;;;19.20;82.80;;;;;;4900677;28;95799;-55
2022/05/14 07:15:12;;;;;;;1.40;1.10;;;19.20;82.70;;;;;;4897128;28;95943;-53
2022/05/14 07:17:44;;;;;;;1.45;1.23;;;19.20;82.70;;;;;;4896707;28;105114;-55
2022/05/14 07:20:16;;;;;;;1.73;1.30;;;19.20;82.70;;;;;;4903130;28;95923;-52
2022/05/14 07:22:49;;;;;;;2.15;1.65;;;19.20;82.70;;;;;;4903094;28;95836;-54
2022/05/14 07:25:22;;;;;;;1.25;1.00;;;19.20;82.70;;;;;;4901753;28;95878;-54
2022/05/14 07:27:53;;;;;;;1.42;1.30;;;19.20;79.80;;;;;;4904700;28;95949;-54
2022/05/14 07:30:24;;;;;;;1.25;1.08;;;19.10;82.60;;;;;;4895468;28;98497;-55
2022/05/14 07:32:57;;;;;;;0.90;0.90;;;19.10;82.60;;;;;;4904180;28;98378;-53
2022/05/14 07:35:29;;;;;;;;;;;19.20;82.70;;;;;;4903898;28;96328;-54
2022/05/14 07:38:07;;;;;;;1.30;1.10;;;19.10;83.20;;;;;;4905168;28;96379;-55
2022/05/14 07:40:38;;;;;;;2.10;1.17;;;19.10;82.50;;;;;;4906629;28;96389;-53
2022/05/14 07:43:23;;;;;;;1.70;1.20;;;19.20;82.60;;;;;;4904519;28;96153;-55
2022/05/14 07:45:57;;;;;;;2.38;1.63;;;19.20;82.50;;;;;;4899609;28;100505;-55
2022/05/14 07:48:36;;;;;;;2.40;0.90;;;19.20;82.40;;;;;;4907293;28;96563;-54
2022/05/14 07:51:11;;;;;;;1.50;1.23;;;19.10;82.40;;;;;;4905704;28;95985;-56
2022/05/14 07:53:44;;;;;;;1.63;1.15;;;19.10;82.40;;;;;;4905673;28;96556;-54
2022/05/14 07:56:16;;;;;;;1.00;0.93;;;19.10;82.50;;;;;;4906540;28;95715;-53
2022/05/14 07:58:47;;;;;;;;;;;19.20;82.50;;;;;;4907715;28;96637;-55
2022/05/14 08:01:19;;;;;;;1.80;1.08;;;19.10;79.50;;;;;;4914508;28;95877;-55
2022/05/14 08:03:53;;;;;;;1.55;1.23;;;19.10;82.50;;;;;;4901669;28;96049;-54
2022/05/14 08:06:24;;;;;;;1.75;1.27;;;19.20;82.40;;;;;;4903655;28;95988;-56
2022/05/14 08:08:57;;;;;;;3.03;1.40;;;19.20;82.50;;;;;;4906076;28;95723;-56
2022/05/14 08:11:28;;;;;;;2.00;1.20;;;19.20;82.40;;;;;;4918574;28;96705;-56
2022/05/14 08:14:01;;;;;;;1.80;1.50;;;19.20;82.60;;;;;;4905217;28;96133;-56
2022/05/14 08:16:35;;;;;;;5.10;2.40;;;19.20;82.60;;;;;;4888599;28;95862;-55
2022/05/14 08:19:07;;;;;;;7.78;3.20;;;19.20;82.60;;;;;;4903475;28;99153;-53
2022/05/14 08:24:34;;;;;;;4.93;2.75;;;19.20;82.80;;;;;;4909745;28;96049;-53
2022/05/14 08:27:10;;;;;;;7.72;3.47;;;19.20;82.60;;;;;;4909400;28;95861;-55
2022/05/14 08:29:49;;;;;;;8.43;4.45;;;19.20;82.80;;;;;;4908728;28;96015;-55
2022/05/14 08:32:21;;;;;;;10.07;4.10;;;19.20;82.90;;;;;;4901077;28;95970;-54
2022/05/14 08:34:52;;;;;;;7.53;3.92;;;19.20;83.00;;;;;;4908376;28;95815;-55
2022/05/14 08:37:26;;;;;;;10.23;4.47;;;19.20;83.00;;;;;;4904142;28;95546;-56
2022/05/14 08:39:56;;;;;;;6.75;3.75;;;19.20;83.10;;;;;;4906861;28;96115;-55
2022/05/14 08:42:28;;;;;;;8.43;3.43;;;19.20;83.10;;;;;;4903043;28;96728;-56
2022/05/14 08:44:59;;;;;;;7.40;3.88;;;19.20;83.10;;;;;;4908643;28;95918;-55
2022/05/14 08:47:40;;;;;;;10.10;4.38;;;19.20;83.10;;;;;;4909250;28;96429;-56
2022/05/14 08:50:13;;;;;;;10.50;3.95;;;19.20;83.20;;;;;;4907366;28;96355;-56
2022/05/14 08:52:46;;;;;;;8.60;4.30;;;19.20;83.20;;;;;;4905599;28;97150;-57
2022/05/14 08:55:19;;;;;;;8.43;3.70;;;19.20;83.30;;;;;;4920243;28;96762;-55
2022/05/14 08:58:37;;;;;;;7.32;3.17;;;19.20;80.30;;;;;;4904308;28;95730;-56
2022/05/14 09:01:09;;;;;;;8.27;3.75;;;19.20;83.20;;;;;;4891858;28;97719;-57
2022/05/14 09:03:45;;;;;;;6.03;4.00;;;19.20;83.30;;;;;;4903991;28;96571;-57
2022/05/14 09:06:18;;;;;;;5.32;3.25;;;19.10;83.30;;;;;;4909571;28;96366;-56
2022/05/14 09:08:50;;;;;;;6.40;3.60;;;19.10;83.20;;;;;;4904206;28;95756;-55
2022/05/14 09:11:43;;;;;;;4.25;3.10;;;19.20;83.40;;;;;;4902162;28;95924;-56
2022/05/14 09:14:31;;;;;;;7.03;3.30;;;19.10;83.30;;;;;;4903297;28;95889;-56
2022/05/14 09:17:16;;;;;;;11.68;4.50;;;19.10;83.20;;;;;;4894721;28;95938;-56
2022/05/14 09:19:52;;;;;;;8.30;4.05;;;19.10;83.30;;;;;;4906632;28;96341;-55
2022/05/14 09:22:24;;;;;;;7.30;3.42;;;19.10;83.20;;;;;;4904411;28;96071;-55
2022/05/14 09:25:24;;;;;;;6.15;3.38;;;19.10;83.20;;;;;;4905677;28;96721;-54
2022/05/14 09:28:07;;;;;;;5.03;2.95;;;19.10;83.10;;;;;;4905545;28;98567;-56
2022/05/14 09:30:46;;;;;;;9.70;2.92;;;19.10;83.10;;;;;;4902532;28;98083;-56
2022/05/14 09:33:35;;;;;;;5.03;2.70;;;19.10;82.90;;;;;;4906022;28;95863;-55
2022/05/14 09:36:30;;;;;;;5.50;2.80;;;19.10;82.90;;;;;;4907014;28;98970;-55
2022/05/14 09:39:13;;;;;;;3.38;2.42;;;19.10;82.80;;;;;;4904047;28;96122;-55
2022/05/14 09:41:49;;;;;;;7.03;3.45;;;19.20;82.80;;;;;;4905128;28;95887;-53
2022/05/14 09:44:27;;;;;;;3.67;3.03;;;19.20;82.80;;;;;;4904552;28;96076;-55
2022/05/14 09:47:12;;;;;;;5.03;2.80;;;19.20;82.90;;;;;;4901612;28;96563;-56
2022/05/14 09:49:59;;;;;;;5.03;2.42;;;19.20;82.80;;;;;;4906845;28;95307;-56
2022/05/14 09:52:34;;;;;;;3.45;2.00;;;19.20;82.80;;;;;;4907543;28;96030;-56
2022/05/14 09:55:09;;;;;;;4.63;2.70;;;19.20;82.80;;;;;;4907153;28;95744;-56
2022/05/14 09:57:48;;;;;;;5.20;2.25;;;19.20;82.70;;;;;;4906585;28;96588;-55
2022/05/14 10:00:39;;;;;;;5.68;2.83;;;19.20;82.80;;;;;;4902890;28;96009;-54
2022/05/14 10:03:37;;;;;;;4.45;2.00;;;19.20;83.00;;;;;;4904215;28;95673;-56
2022/05/14 10:06:36;;;;;;;3.35;2.08;;;19.20;82.70;;;;;;4905551;28;96193;-53
2022/05/14 10:09:14;;;;;;;2.72;2.00;;;19.20;82.40;;;;;;4906454;28;96733;-56
2022/05/14 10:11:57;;;;;;;6.35;2.53;;;19.20;82.50;;;;;;4905378;28;95769;-54
2022/05/14 10:14:48;;;;;;;2.70;1.75;;;19.20;82.40;;;;;;4901756;28;96651;-56
2022/05/14 10:17:47;;;;;;;3.38;2.17;;;19.20;82.30;;;;;;4887133;28;95922;-54
2022/05/14 10:20:58;;;;;;;2.53;1.60;;;19.30;82.30;;;;;;4901632;28;95832;-56
2022/05/14 10:27:14;;;;;;;4.47;1.97;;;19.20;82.10;;;;;;4904676;28;95794;-56
2022/05/14 10:29:57;;;;;;;2.72;1.70;;;19.30;82.10;;;;;;4904258;28;96361;-55
2022/05/14 10:32:32;;;;;;;2.95;1.52;;;19.30;82.10;;;;;;4896542;28;96445;-56
2022/05/14 10:35:47;;;;;;;2.50;1.58;;;19.30;81.90;;;;;;4902418;28;98002;-56
2022/05/14 10:38:43;;;;;;;3.92;1.70;;;19.30;82.00;;;;;;4862984;28;96082;-56
2022/05/14 10:41:31;;;;;;;2.25;1.33;;;19.30;82.40;;;;;;4902249;28;96540;-57
2022/05/14 10:44:05;;;;;;;1.38;1.25;;;19.30;81.70;;;;;;4902717;28;96196;-56
2022/05/14 10:46:39;;;;;;;2.17;1.50;;;19.30;81.80;;;;;;4897384;28;95887;-55
2022/05/14 10:49:17;;;;;;;2.03;1.17;;;19.30;81.50;;;;;;4905622;28;95462;-56
2022/05/14 10:51:53;;;;;;;1.30;1.17;;;19.30;81.40;;;;;;4897922;28;95744;-57
2022/05/14 10:54:27;;;;;;;1.70;1.30;;;19.30;81.30;;;;;;4898604;28;96409;-56
2022/05/14 10:57:21;;;;;;;1.52;0.95;;;19.30;81.50;;;;;;4899111;28;95802;-57
2022/05/14 11:00:05;;;;;;;3.03;1.20;;;19.20;81.30;;;;;;4890314;28;95745;-56
2022/05/14 11:02:52;;;;;;;2.15;1.33;;;19.20;81.20;;;;;;4899282;28;95812;-56
2022/05/14 11:05:38;;;;;;;3.05;1.33;;;19.20;81.80;;;;;;4902272;28;96465;-57
2022/05/14 11:08:26;;;;;;;2.10;1.20;;;19.20;81.30;;;;;;4896464;28;95658;-54
2022/05/14 11:11:09;;;;;;;3.53;1.42;;;19.20;81.40;;;;;;4896217;28;95585;-56
2022/05/14 11:13:40;;;;;;;1.85;1.35;;;19.10;81.30;;;;;;4903896;28;96216;-54
2022/05/14 11:16:16;;;;;;;1.95;1.27;;;19.10;81.30;;;;;;4897972;28;99935;-61
2022/05/14 11:18:55;;;;;;;3.15;1.15;;;19.10;81.30;;;;;;4901487;28;99516;-57
2022/05/14 11:21:40;;;;;;;1.73;1.05;;;19.10;81.40;;;;;;4919075;28;95616;-58
2022/05/14 11:24:13;;;;;;;3.28;1.27;;;19.10;81.30;;;;;;4904653;28;95655;-58
2022/05/14 11:26:50;;;;;;;2.55;1.27;;;19.00;81.30;;;;;;4900974;28;97039;-58
2022/05/14 11:29:25;;;;;;;1.48;1.00;;;19.00;81.20;;;;;;4898621;28;96041;-58
2022/05/14 11:32:10;;;;;;;1.20;1.10;;;19.00;81.20;;;;;;4896948;28;96039;-57
2022/05/14 11:34:58;;;;;;;1.40;0.90;;;19.00;81.20;;;;;;4901149;28;95641;-58
2022/05/14 11:37:36;;;;;;;1.20;1.05;;;18.90;81.20;;;;;;4903292;28;97042;-57
2022/05/14 11:40:17;;;;;;;3.13;1.60;;;18.90;81.30;;;;;;4894204;28;95914;-57
2022/05/14 11:42:53;;;;;;;1.85;1.02;;;18.90;81.80;;;;;;4902263;28;96233;-55
2022/05/14 11:45:29;;;;;;;2.70;1.30;;;18.90;82.20;;;;;;4912572;28;97888;-56
2022/05/14 11:48:31;;;;;;;3.63;1.40;;;18.90;82.30;;;;;;4904614;28;97057;-54
2022/05/14 11:51:28;;;;;;;4.90;1.85;;;19.00;82.40;;;;;;4895678;28;96487;-57
2022/05/14 11:54:08;;;;;;;1.65;1.33;;;18.90;82.30;;;;;;4904784;28;96378;-59
2022/05/14 11:56:42;;;;;;;5.60;1.60;;;19.00;82.20;;;;;;4903041;28;95426;-60
2022/05/14 11:59:21;;;;;;;1.67;1.30;;;19.00;82.10;;;;;;4902006;28;96731;-57
2022/05/14 12:01:53;;;;;;;4.38;1.40;;;19.00;82.10;;;;;;4909903;28;95953;-58
2022/05/14 12:04:40;;;;;;;3.08;1.45;;;19.00;81.90;;;;;;4903252;28;95915;-58
2022/05/14 12:07:31;;;;;;;2.53;1.45;;;19.00;81.90;;;;;;4901541;28;95871;-56
2022/05/14 12:10:29;;;;;;;1.48;1.17;;;18.90;81.80;;;;;;4899483;28;96352;-56
2022/05/14 12:13:24;;;;;;;2.17;1.42;;;19.00;79.00;;;;;;4897679;28;96326;-57
2022/05/14 12:16:00;;;;;;;2.97;1.35;;;18.90;81.80;;;;;;4892940;28;95961;-56
2022/05/14 12:18:33;;;;;;;3.20;1.35;;;18.90;81.80;;;;;;4898255;28;95885;-56
2022/05/14 12:21:08;;;;;;;2.05;1.00;;;18.90;81.60;;;;;;4899984;28;96067;-57
2022/05/14 12:23:45;;;;;;;1.67;1.15;;;18.90;81.60;;;;;;4899843;28;96008;-57
2022/05/14 12:26:31;;;;;;;1.20;0.90;;;18.90;81.70;;;;;;4900662;28;95929;-58
2022/05/14 12:29:16;;;;;;;1.10;1.00;;;18.90;81.50;;;;;;4899349;28;98319;-58
2022/05/14 12:34:37;;;;;;;1.70;1.13;;;18.90;81.50;;;;;;4903210;28;95833;-57
2022/05/14 12:37:40;;;;;;;0.95;0.90;;;18.80;81.50;;;;;;4903118;28;97175;-57
2022/05/14 12:40:30;;;;;;;0.68;0.68;;;18.80;81.40;;;;;;4905319;28;95729;-56
2022/05/14 12:43:02;;;;;;;1.35;1.00;;;18.80;78.60;;;;;;4903818;28;95915;-58
2022/05/14 12:45:43;;;;;;;1.98;0.90;;;18.80;81.40;;;;;;4897806;28;98712;-57
2022/05/14 12:48:15;;;;;;;1.48;1.05;;;18.80;81.30;;;;;;4904639;28;95801;-56
2022/05/14 12:50:59;;;;;;;1.40;1.33;;;18.80;81.20;;;;;;4903078;28;96053;-57
2022/05/14 12:53:38;;;;;;;1.77;0.85;;;18.80;81.20;;;;;;4904292;28;96592;-57
2022/05/14 12:56:09;;;;;;;1.30;0.80;;;18.80;81.20;;;;;;4903448;28;95977;-57
2022/05/14 12:58:41;;;;;;;0.70;0.70;;;18.70;81.10;;;;;;4903261;28;96493;-58
2022/05/14 13:01:13;;;;;;;0.55;0.50;;;18.70;81.10;;;;;;4898174;28;95619;-58
2022/05/14 13:04:09;;;;;;;1.25;1.08;;;18.70;81.10;;;;;;4902602;28;96373;-57
2022/05/14 13:06:45;;;;;;;1.52;0.63;;;18.70;81.00;;;;;;4903713;28;95719;-58
2022/05/14 13:09:23;;;;;;;1.00;0.80;;;18.70;80.90;;;;;;4907020;28;95749;-58
2022/05/14 13:11:57;;;;;;;0.80;0.73;;;18.60;81.00;;;;;;4909227;28;95889;-58
2022/05/14 13:14:34;;;;;;;1.58;0.90;;;18.70;81.00;;;;;;4907352;28;95901;-59
2022/05/14 13:17:12;;;;;;;0.77;0.77;;;18.60;80.80;;;;;;4898562;28;97416;-61
2022/05/14 13:19:56;;;;;;;0.90;0.90;;;18.60;80.90;;;;;;4907692;28;95847;-61
2022/05/14 13:22:33;;;;;;;0.90;0.75;;;18.70;80.80;;;;;;4908938;28;95782;-61
2022/05/14 13:25:32;;;;;;;0.90;0.90;;;18.60;80.80;;;;;;4908954;28;96031;-60
2022/05/14 13:28:19;;;;;;;1.13;0.90;;;18.60;77.90;;;;;;4907791;28;95801;-57
2022/05/14 13:30:49;;;;;;;3.08;1.17;;;18.60;80.80;;;;;;4903452;28;95851;-61
2022/05/14 13:33:30;;;;;;;1.17;1.05;;;18.60;80.70;;;;;;4908514;28;95969;-59
2022/05/14 13:39:03;;;;;;;0.95;0.95;;;18.50;80.80;;;;;;4908223;28;96517;-59
2022/05/14 13:41:43;;;;;;;0.75;0.75;;;18.60;80.90;;;;;;4908547;28;95771;-59
2022/05/14 13:44:24;;;;;;;0.93;0.93;;;18.50;80.60;;;;;;4908461;28;95717;-58
2022/05/14 13:46:59;;;;;;;1.30;0.90;;;18.50;80.60;;;;;;4894481;28;96169;-59
2022/05/14 13:49:35;;;;;;;0.95;0.85;;;18.50;81.20;;;;;;4889171;28;96474;-59
2022/05/14 13:52:06;;;;;;;0.57;0.57;;;18.50;80.60;;;;;;4889363;28;96104;-59
2022/05/14 13:54:42;;;;;;;1.52;1.00;;;18.40;80.60;;;;;;4889210;28;95998;-58
2022/05/14 13:57:16;;;;;;;1.00;0.80;;;18.50;80.60;;;;;;4890499;28;96129;-58